Архив погоды в Звериноголовском

Метеограмма Звериноголовское
Среда, 25 Июля
Время местн. Темп Ветер Видим Явления Облачность нижн/средн/верх Атм. давл. Влжн Точка росы ВНГО R Сост. почвы Tg s
Напр Скр Прв ур.ст ур.м изм
14:00 +27.6° С,С-В 4 - 20 км - ясно 756 766 +0.2 32% +9.4° более 2.5 км - - - -
11:00 +25.5° С,С-В 5 - 20 км - переменная облачность 756 766 +0.5 49% +13.9° 1.5 км - - - -
08:00 +20.4° С 2 - 20 км - ясно 756 766 +0.8 69% +14.5° более 2.5 км 0 Влажная (без луж) - -
05:00 +15° С 1 - 20 км - переменная облачность 755 765 +0.8 89% +13.2° более 2.5 км - - - -
02:00 +15.9° С 1 - 10 км - ясно 754 764 +0.5 85% +13.4° более 2.5 км - - - -
Вторник, 24 Июля
Время местн. Темп Ветер Видим Явления Облачность нижн/средн/верх Атм. давл. Влжн Точка росы ВНГО R Сост. почвы Tg s
Напр Скр Прв ур.ст ур.м изм
23:00 +20.2° С 1 - 10 км - ясно 753 764 +0.8 64% +13.1° более 2.5 км - - - -
20:00 +24.9° С 1 - 20 км - переменная облачность 753 763 +0.6 57% +15.8° 1.5 км 0 - - -
17:00 +28.8° С 3 - 20 км - облачно с прояснениями 752 762 +0.4 38% +13.2° 1.5 км - - - -
14:00 +28.1° С 5 11 20 км - облачно с прояснениями 752 762 +0.2 39% +13° 1.5 км - - - -
11:00 +25.3° С 4 - 20 км - ясно 751 761 +0.4 56% +15.8° более 2.5 км - - - -
08:00 +20.5° С 3 - 20 км - ясно 751 761 +0.9 69% +14.7° более 2.5 км 21 Влажная (без луж) - -
05:00 +15.7° С 2 - 20 км - переменная облачность 750 761 +1 84% +13° более 2.5 км - - - -
02:00 +16.6° С 2 - 10 км - ясно 749 759 +0.2 89% +14.8° более 2.5 км - - - -
Понедельник, 23 Июля
Время местн. Темп Ветер Видим Явления Облачность нижн/средн/верх Атм. давл. Влжн Точка росы ВНГО R Сост. почвы Tg s
Напр Скр Прв ур.ст ур.м изм
23:00 +15.3° З,С-З 2 - 10 км гроза облачно с прояснениями 749 759 +0.8 94% +14.4° 1 км - - - -
20:00 +23.6° С,С-З 5 10 20 км - облачно с прояснениями 748 758 -1 51% +12.9° 1 км 0 - - -
17:00 +23.8° С 5 10 20 км - переменная облачность 749 759 -1.1 45% +11° 1.5 км - - - -
14:00 +21.1° С,С-З 6 10 20 км - переменная облачность 750 761 -1.3 41% +7.5° 1.5 км - - - -
11:00 +19.7° С 5 - 20 км - переменная облачность 752 762 -1.1 45% +7.6° 1.5 км - - - -
08:00 +13.5° С 2 - 20 км - незначительная облачность 753 763 -0.2 72% +8.6° более 2.5 км 0 Влажная (без луж) - -
05:00 +6.4° С,С-З 2 - 20 км - ясно 753 764 +0.1 93% +5.4° более 2.5 км - - - -
02:00 +7.1° С-З 1 - 10 км - ясно 753 764 -0.2 93% +6° более 2.5 км - - - -
Воскресенье, 22 Июля
Время местн. Темп Ветер Видим Явления Облачность нижн/средн/верх Атм. давл. Влжн Точка росы ВНГО R Сост. почвы Tg s
Напр Скр Прв ур.ст ур.м изм
23:00 +10.5° С,С-В 2 - 10 км - ясно 753 764 +0.1 72% +5.6° более 2.5 км - - - -
20:00 +16.7° С,С-В 2 10 20 км - переменная облачность 753 764 +0.4 50% +6.1° 1 км 0 - - -
17:00 +18.9° С-В 4 - 20 км - переменная облачность 753 763 -0.2 41% +5.2° 1.5 км - - - -
14:00 +18.9° С-В 6 14 20 км - переменная облачность 753 763 -0.4 39% +4.5° 1.5 км - - - -
11:00 +17.2° С-В 6 11 20 км - переменная облачность 753 764 +0.2 40% +3.5° 1.5 км - - - -